Witherbee, New York
Current Conditions -  °F | °C
As of 1:55 PM on Tuesday 27 Jan 2015 (Local Time) from K6B0 Reporting Station
Light Snow Light Snow  
Wind Chill: -10°   Ceiling: 1100
Heat Index:   Visibility: 0.75mi
Dew Point:   Wind: 14mph
Humidity: 79%   Direction: 350°N
Pressure: 29.84"   Gusts: 29mph
Location:  44.09°N, 73.53°W
Report Text: K6B0 271855Z AUTO 35012G25KT 3/4SM -SN OVC011 M14/M17 A2984 RMK AO2 LTG DSNT E T11401169
Loading
Personal Weather Stations






























Interactive Weather Map New forecast layout! Learn more

10-Day Weather Forecast

Advertisements
Track Severe Weather on mobile